sensor_id;sensor_type;location;lat;lon;timestamp;P1;durP1;ratioP1;P2;durP2;ratioP2
2338;SDS011;1180;51.438;6.978;2023-07-13T00:00:35;4.00;;;1.73;;
2338;SDS011;1180;51.438;6.978;2023-07-13T00:03:02;1.53;;;1.43;;
2338;SDS011;1180;51.438;6.978;2023-07-13T00:05:28;2.40;;;1.30;;
2338;SDS011;1180;51.438;6.978;2023-07-13T00:07:54;3.07;;;1.57;;
2338;SDS011;1180;51.438;6.978;2023-07-13T00:10:20;2.07;;;1.70;;
2338;SDS011;1180;51.438;6.978;2023-07-13T00:12:46;2.60;;;1.60;;
2338;SDS011;1180;51.438;6.978;2023-07-13T00:15:14;3.80;;;1.60;;
2338;SDS011;1180;51.438;6.978;2023-07-13T00:17:48;3.37;;;1.80;;
2338;SDS011;1180;51.438;6.978;2023-07-13T00:20:15;5.20;;;1.80;;
2338;SDS011;1180;51.438;6.978;2023-07-13T00:22:41;2.37;;;1.70;;
2338;SDS011;1180;51.438;6.978;2023-07-13T00:25:10;2.80;;;1.50;;
2338;SDS011;1180;51.438;6.978;2023-07-13T00:27:37;3.90;;;1.83;;
2338;SDS011;1180;51.438;6.978;2023-07-13T00:30:03;3.13;;;1.40;;
2338;SDS011;1180;51.438;6.978;2023-07-13T00:32:30;1.90;;;1.70;;
2338;SDS011;1180;51.438;6.978;2023-07-13T00:34:56;3.03;;;1.47;;
2338;SDS011;1180;51.438;6.978;2023-07-13T00:37:23;3.07;;;1.80;;
2338;SDS011;1180;51.438;6.978;2023-07-13T00:39:49;4.50;;;1.83;;
2338;SDS011;1180;51.438;6.978;2023-07-13T00:42:14;4.00;;;1.50;;
2338;SDS011;1180;51.438;6.978;2023-07-13T00:44:40;4.43;;;1.53;;
2338;SDS011;1180;51.438;6.978;2023-07-13T00:47:06;4.10;;;1.70;;
2338;SDS011;1180;51.438;6.978;2023-07-13T00:49:33;3.90;;;1.43;;
2338;SDS011;1180;51.438;6.978;2023-07-13T00:52:05;2.43;;;1.40;;
2338;SDS011;1180;51.438;6.978;2023-07-13T00:54:41;2.73;;;1.67;;
2338;SDS011;1180;51.438;6.978;2023-07-13T00:57:12;1.90;;;1.67;;
2338;SDS011;1180;51.438;6.978;2023-07-13T00:59:42;4.63;;;1.60;;
2338;SDS011;1180;51.438;6.978;2023-07-13T01:02:10;1.93;;;1.63;;
2338;SDS011;1180;51.438;6.978;2023-07-13T01:04:38;9.07;;;1.70;;
2338;SDS011;1180;51.438;6.978;2023-07-13T01:07:04;4.77;;;2.10;;
2338;SDS011;1180;51.438;6.978;2023-07-13T01:09:32;2.90;;;1.40;;
2338;SDS011;1180;51.438;6.978;2023-07-13T01:11:58;4.63;;;2.17;;
2338;SDS011;1180;51.438;6.978;2023-07-13T01:14:24;3.60;;;2.10;;
2338;SDS011;1180;51.438;6.978;2023-07-13T01:16:50;8.60;;;2.03;;
2338;SDS011;1180;51.438;6.978;2023-07-13T01:19:36;4.23;;;1.83;;
2338;SDS011;1180;51.438;6.978;2023-07-13T01:22:09;4.27;;;1.50;;
2338;SDS011;1180;51.438;6.978;2023-07-13T01:24:37;7.20;;;1.57;;
2338;SDS011;1180;51.438;6.978;2023-07-13T01:27:04;3.70;;;1.57;;
2338;SDS011;1180;51.438;6.978;2023-07-13T01:29:33;3.30;;;1.53;;
2338;SDS011;1180;51.438;6.978;2023-07-13T01:32:08;2.60;;;1.73;;
2338;SDS011;1180;51.438;6.978;2023-07-13T01:34:35;2.70;;;1.53;;
2338;SDS011;1180;51.438;6.978;2023-07-13T01:37:02;3.60;;;1.70;;
2338;SDS011;1180;51.438;6.978;2023-07-13T01:39:30;3.67;;;1.33;;
2338;SDS011;1180;51.438;6.978;2023-07-13T01:41:56;2.87;;;1.50;;
2338;SDS011;1180;51.438;6.978;2023-07-13T01:44:23;3.60;;;1.43;;
2338;SDS011;1180;51.438;6.978;2023-07-13T01:46:49;3.83;;;1.60;;
2338;SDS011;1180;51.438;6.978;2023-07-13T01:49:15;4.33;;;1.80;;
2338;SDS011;1180;51.438;6.978;2023-07-13T01:51:40;5.00;;;2.00;;
2338;SDS011;1180;51.438;6.978;2023-07-13T01:54:06;3.63;;;1.40;;
2338;SDS011;1180;51.438;6.978;2023-07-13T01:56:32;3.13;;;1.63;;
2338;SDS011;1180;51.438;6.978;2023-07-13T01:58:57;2.70;;;1.50;;
2338;SDS011;1180;51.438;6.978;2023-07-13T02:01:23;4.20;;;2.00;;
2338;SDS011;1180;51.438;6.978;2023-07-13T02:03:50;3.20;;;1.80;;
2338;SDS011;1180;51.438;6.978;2023-07-13T02:06:16;3.90;;;1.80;;
2338;SDS011;1180;51.438;6.978;2023-07-13T02:08:42;3.63;;;1.37;;
2338;SDS011;1180;51.438;6.978;2023-07-13T02:11:08;3.60;;;1.80;;
2338;SDS011;1180;51.438;6.978;2023-07-13T02:13:34;2.63;;;1.60;;
2338;SDS011;1180;51.438;6.978;2023-07-13T02:16:00;4.07;;;1.97;;
2338;SDS011;1180;51.438;6.978;2023-07-13T02:18:26;2.63;;;1.63;;
2338;SDS011;1180;51.438;6.978;2023-07-13T02:20:52;3.10;;;1.50;;
2338;SDS011;1180;51.438;6.978;2023-07-13T02:23:18;2.53;;;1.20;;
2338;SDS011;1180;51.438;6.978;2023-07-13T02:25:44;8.30;;;3.03;;
2338;SDS011;1180;51.438;6.978;2023-07-13T02:28:10;7.40;;;1.80;;
2338;SDS011;1180;51.438;6.978;2023-07-13T02:30:37;3.87;;;2.10;;
2338;SDS011;1180;51.438;6.978;2023-07-13T02:33:03;3.70;;;1.63;;
2338;SDS011;1180;51.438;6.978;2023-07-13T02:35:29;3.67;;;1.97;;
2338;SDS011;1180;51.438;6.978;2023-07-13T02:37:55;7.40;;;1.93;;
2338;SDS011;1180;51.438;6.978;2023-07-13T02:40:21;7.37;;;1.70;;
2338;SDS011;1180;51.438;6.978;2023-07-13T02:42:47;5.70;;;2.20;;
2338;SDS011;1180;51.438;6.978;2023-07-13T02:45:13;2.03;;;1.50;;
2338;SDS011;1180;51.438;6.978;2023-07-13T02:47:39;5.27;;;1.80;;
2338;SDS011;1180;51.438;6.978;2023-07-13T02:50:07;2.70;;;1.50;;
2338;SDS011;1180;51.438;6.978;2023-07-13T02:52:33;2.60;;;1.30;;
2338;SDS011;1180;51.438;6.978;2023-07-13T02:54:59;4.93;;;1.70;;
2338;SDS011;1180;51.438;6.978;2023-07-13T02:57:25;6.40;;;1.80;;
2338;SDS011;1180;51.438;6.978;2023-07-13T02:59:53;3.57;;;1.63;;
2338;SDS011;1180;51.438;6.978;2023-07-13T03:02:19;3.90;;;1.73;;
2338;SDS011;1180;51.438;6.978;2023-07-13T03:04:45;3.53;;;1.63;;
2338;SDS011;1180;51.438;6.978;2023-07-13T03:07:11;2.90;;;1.60;;
2338;SDS011;1180;51.438;6.978;2023-07-13T03:09:40;3.87;;;1.67;;
2338;SDS011;1180;51.438;6.978;2023-07-13T03:12:06;4.00;;;1.77;;
2338;SDS011;1180;51.438;6.978;2023-07-13T03:14:32;4.40;;;1.70;;
2338;SDS011;1180;51.438;6.978;2023-07-13T03:16:58;2.10;;;1.50;;
2338;SDS011;1180;51.438;6.978;2023-07-13T03:19:24;2.97;;;1.47;;
2338;SDS011;1180;51.438;6.978;2023-07-13T03:21:50;5.60;;;1.63;;
2338;SDS011;1180;51.438;6.978;2023-07-13T03:24:16;3.20;;;1.93;;
2338;SDS011;1180;51.438;6.978;2023-07-13T03:26:41;2.57;;;1.33;;
2338;SDS011;1180;51.438;6.978;2023-07-13T03:29:07;3.53;;;1.30;;
2338;SDS011;1180;51.438;6.978;2023-07-13T03:31:34;2.43;;;1.40;;
2338;SDS011;1180;51.438;6.978;2023-07-13T03:34:01;5.30;;;1.70;;
2338;SDS011;1180;51.438;6.978;2023-07-13T03:36:29;3.93;;;1.20;;
2338;SDS011;1180;51.438;6.978;2023-07-13T03:38:57;3.03;;;1.77;;
2338;SDS011;1180;51.438;6.978;2023-07-13T03:41:25;2.70;;;1.67;;
2338;SDS011;1180;51.438;6.978;2023-07-13T03:43:52;2.50;;;1.90;;
2338;SDS011;1180;51.438;6.978;2023-07-13T03:46:18;6.27;;;1.93;;
2338;SDS011;1180;51.438;6.978;2023-07-13T03:48:45;2.40;;;1.60;;
2338;SDS011;1180;51.438;6.978;2023-07-13T03:51:12;4.63;;;1.83;;
2338;SDS011;1180;51.438;6.978;2023-07-13T03:53:40;4.93;;;1.60;;
2338;SDS011;1180;51.438;6.978;2023-07-13T03:56:07;3.57;;;1.90;;
2338;SDS011;1180;51.438;6.978;2023-07-13T03:58:35;4.23;;;1.53;;
2338;SDS011;1180;51.438;6.978;2023-07-13T04:01:03;3.07;;;1.63;;
2338;SDS011;1180;51.438;6.978;2023-07-13T04:03:31;5.50;;;1.83;;
2338;SDS011;1180;51.438;6.978;2023-07-13T04:06:02;5.30;;;2.00;;
2338;SDS011;1180;51.438;6.978;2023-07-13T04:08:29;2.40;;;1.70;;
2338;SDS011;1180;51.438;6.978;2023-07-13T04:10:57;3.47;;;1.73;;
2338;SDS011;1180;51.438;6.978;2023-07-13T04:13:23;2.70;;;1.87;;
2338;SDS011;1180;51.438;6.978;2023-07-13T04:15:50;3.73;;;1.60;;
2338;SDS011;1180;51.438;6.978;2023-07-13T04:18:16;4.63;;;1.70;;
2338;SDS011;1180;51.438;6.978;2023-07-13T04:20:42;4.27;;;1.87;;
2338;SDS011;1180;51.438;6.978;2023-07-13T04:23:08;4.07;;;1.67;;
2338;SDS011;1180;51.438;6.978;2023-07-13T04:25:34;2.87;;;1.57;;
2338;SDS011;1180;51.438;6.978;2023-07-13T04:28:00;8.97;;;1.80;;
2338;SDS011;1180;51.438;6.978;2023-07-13T04:30:27;2.00;;;1.47;;
2338;SDS011;1180;51.438;6.978;2023-07-13T04:32:54;4.63;;;1.60;;
2338;SDS011;1180;51.438;6.978;2023-07-13T04:35:20;5.67;;;1.80;;
2338;SDS011;1180;51.438;6.978;2023-07-13T04:37:47;4.30;;;2.00;;
2338;SDS011;1180;51.438;6.978;2023-07-13T04:40:15;2.60;;;1.73;;
2338;SDS011;1180;51.438;6.978;2023-07-13T04:42:43;3.37;;;1.60;;
2338;SDS011;1180;51.438;6.978;2023-07-13T04:45:11;4.20;;;2.00;;
2338;SDS011;1180;51.438;6.978;2023-07-13T04:47:38;2.60;;;1.83;;
2338;SDS011;1180;51.438;6.978;2023-07-13T04:50:04;3.10;;;1.57;;
2338;SDS011;1180;51.438;6.978;2023-07-13T04:52:31;3.33;;;1.63;;
2338;SDS011;1180;51.438;6.978;2023-07-13T04:54:58;4.27;;;1.90;;
2338;SDS011;1180;51.438;6.978;2023-07-13T04:57:24;4.10;;;2.00;;
2338;SDS011;1180;51.438;6.978;2023-07-13T04:59:50;2.20;;;1.50;;
2338;SDS011;1180;51.438;6.978;2023-07-13T05:02:16;2.53;;;1.83;;
2338;SDS011;1180;51.438;6.978;2023-07-13T05:04:42;8.37;;;1.60;;
2338;SDS011;1180;51.438;6.978;2023-07-13T05:07:07;4.20;;;1.60;;
2338;SDS011;1180;51.438;6.978;2023-07-13T05:09:33;2.77;;;1.43;;
2338;SDS011;1180;51.438;6.978;2023-07-13T05:11:59;2.20;;;1.80;;
2338;SDS011;1180;51.438;6.978;2023-07-13T05:14:24;2.20;;;1.50;;
2338;SDS011;1180;51.438;6.978;2023-07-13T05:16:50;4.77;;;1.63;;
2338;SDS011;1180;51.438;6.978;2023-07-13T05:19:15;2.37;;;1.60;;
2338;SDS011;1180;51.438;6.978;2023-07-13T05:21:41;2.53;;;1.60;;
2338;SDS011;1180;51.438;6.978;2023-07-13T05:24:07;2.23;;;1.30;;
2338;SDS011;1180;51.438;6.978;2023-07-13T05:26:32;4.50;;;1.87;;
2338;SDS011;1180;51.438;6.978;2023-07-13T05:28:58;3.93;;;2.27;;
2338;SDS011;1180;51.438;6.978;2023-07-13T05:31:24;4.43;;;2.00;;
2338;SDS011;1180;51.438;6.978;2023-07-13T05:33:50;2.53;;;1.60;;
2338;SDS011;1180;51.438;6.978;2023-07-13T05:36:16;4.17;;;1.70;;
2338;SDS011;1180;51.438;6.978;2023-07-13T05:38:41;1.80;;;1.60;;
2338;SDS011;1180;51.438;6.978;2023-07-13T05:41:07;4.90;;;1.60;;
2338;SDS011;1180;51.438;6.978;2023-07-13T05:43:32;4.90;;;1.80;;
2338;SDS011;1180;51.438;6.978;2023-07-13T05:45:58;7.77;;;2.00;;
2338;SDS011;1180;51.438;6.978;2023-07-13T05:48:24;6.13;;;3.93;;
2338;SDS011;1180;51.438;6.978;2023-07-13T05:50:50;5.90;;;3.10;;
2338;SDS011;1180;51.438;6.978;2023-07-13T05:53:15;5.60;;;2.57;;
2338;SDS011;1180;51.438;6.978;2023-07-13T05:55:44;4.23;;;1.97;;
2338;SDS011;1180;51.438;6.978;2023-07-13T05:58:16;4.97;;;2.27;;
2338;SDS011;1180;51.438;6.978;2023-07-13T06:00:42;3.87;;;2.00;;
2338;SDS011;1180;51.438;6.978;2023-07-13T06:03:07;4.10;;;2.70;;
2338;SDS011;1180;51.438;6.978;2023-07-13T06:05:33;7.57;;;2.33;;
2338;SDS011;1180;51.438;6.978;2023-07-13T06:08:01;6.30;;;1.90;;
2338;SDS011;1180;51.438;6.978;2023-07-13T06:10:26;4.63;;;2.50;;
2338;SDS011;1180;51.438;6.978;2023-07-13T06:12:52;5.50;;;2.67;;
2338;SDS011;1180;51.438;6.978;2023-07-13T06:15:17;3.70;;;2.00;;
2338;SDS011;1180;51.438;6.978;2023-07-13T06:17:43;4.10;;;1.80;;
2338;SDS011;1180;51.438;6.978;2023-07-13T06:20:09;4.20;;;2.63;;
2338;SDS011;1180;51.438;6.978;2023-07-13T06:22:34;6.37;;;2.10;;
2338;SDS011;1180;51.438;6.978;2023-07-13T06:25:00;2.27;;;1.60;;
2338;SDS011;1180;51.438;6.978;2023-07-13T06:27:26;4.70;;;2.27;;
2338;SDS011;1180;51.438;6.978;2023-07-13T06:29:51;6.97;;;2.43;;
2338;SDS011;1180;51.438;6.978;2023-07-13T06:32:17;5.10;;;2.33;;
2338;SDS011;1180;51.438;6.978;2023-07-13T06:34:42;3.70;;;2.03;;
2338;SDS011;1180;51.438;6.978;2023-07-13T06:37:08;6.43;;;2.77;;
2338;SDS011;1180;51.438;6.978;2023-07-13T06:39:35;4.77;;;2.10;;
2338;SDS011;1180;51.438;6.978;2023-07-13T06:42:00;5.03;;;2.30;;
2338;SDS011;1180;51.438;6.978;2023-07-13T06:44:26;6.33;;;2.40;;
2338;SDS011;1180;51.438;6.978;2023-07-13T06:46:52;10.33;;;2.97;;
2338;SDS011;1180;51.438;6.978;2023-07-13T06:49:17;4.70;;;2.50;;
2338;SDS011;1180;51.438;6.978;2023-07-13T06:51:43;3.70;;;2.97;;
2338;SDS011;1180;51.438;6.978;2023-07-13T06:54:08;3.40;;;2.23;;
2338;SDS011;1180;51.438;6.978;2023-07-13T06:56:34;4.77;;;2.57;;
2338;SDS011;1180;51.438;6.978;2023-07-13T06:58:59;6.07;;;3.10;;
2338;SDS011;1180;51.438;6.978;2023-07-13T07:01:25;5.23;;;2.57;;
2338;SDS011;1180;51.438;6.978;2023-07-13T07:03:51;4.57;;;2.13;;
2338;SDS011;1180;51.438;6.978;2023-07-13T07:06:20;3.50;;;2.33;;
2338;SDS011;1180;51.438;6.978;2023-07-13T07:08:50;8.80;;;3.17;;
2338;SDS011;1180;51.438;6.978;2023-07-13T07:11:17;4.73;;;2.50;;
2338;SDS011;1180;51.438;6.978;2023-07-13T07:13:45;8.43;;;3.30;;
2338;SDS011;1180;51.438;6.978;2023-07-13T07:16:11;6.63;;;2.70;;
2338;SDS011;1180;51.438;6.978;2023-07-13T07:18:36;6.87;;;2.77;;
2338;SDS011;1180;51.438;6.978;2023-07-13T07:21:02;6.57;;;2.27;;
2338;SDS011;1180;51.438;6.978;2023-07-13T07:23:28;5.97;;;3.20;;
2338;SDS011;1180;51.438;6.978;2023-07-13T07:25:54;6.50;;;3.07;;
2338;SDS011;1180;51.438;6.978;2023-07-13T07:28:20;4.83;;;2.80;;
2338;SDS011;1180;51.438;6.978;2023-07-13T07:30:46;8.17;;;3.03;;
2338;SDS011;1180;51.438;6.978;2023-07-13T07:33:12;5.63;;;2.80;;
2338;SDS011;1180;51.438;6.978;2023-07-13T07:35:38;3.10;;;2.70;;
2338;SDS011;1180;51.438;6.978;2023-07-13T07:38:03;5.87;;;3.13;;
2338;SDS011;1180;51.438;6.978;2023-07-13T07:40:29;9.27;;;3.47;;
2338;SDS011;1180;51.438;6.978;2023-07-13T07:42:56;9.03;;;4.03;;
2338;SDS011;1180;51.438;6.978;2023-07-13T07:45:22;10.83;;;3.13;;
2338;SDS011;1180;51.438;6.978;2023-07-13T07:47:48;7.40;;;2.87;;
2338;SDS011;1180;51.438;6.978;2023-07-13T07:50:15;4.70;;;3.00;;
2338;SDS011;1180;51.438;6.978;2023-07-13T07:52:41;7.23;;;3.80;;
2338;SDS011;1180;51.438;6.978;2023-07-13T07:55:08;6.00;;;3.03;;
2338;SDS011;1180;51.438;6.978;2023-07-13T07:57:34;6.47;;;2.90;;
2338;SDS011;1180;51.438;6.978;2023-07-13T07:59:59;4.20;;;3.00;;
2338;SDS011;1180;51.438;6.978;2023-07-13T08:02:26;6.00;;;3.50;;
2338;SDS011;1180;51.438;6.978;2023-07-13T08:04:52;5.73;;;3.40;;
2338;SDS011;1180;51.438;6.978;2023-07-13T08:07:18;4.47;;;3.20;;
2338;SDS011;1180;51.438;6.978;2023-07-13T08:09:44;6.10;;;2.63;;
2338;SDS011;1180;51.438;6.978;2023-07-13T08:12:10;8.47;;;3.63;;
2338;SDS011;1180;51.438;6.978;2023-07-13T08:14:35;5.20;;;3.40;;
2338;SDS011;1180;51.438;6.978;2023-07-13T08:17:01;11.93;;;4.07;;
2338;SDS011;1180;51.438;6.978;2023-07-13T08:19:27;6.83;;;2.80;;
2338;SDS011;1180;51.438;6.978;2023-07-13T08:21:53;5.87;;;3.20;;
2338;SDS011;1180;51.438;6.978;2023-07-13T08:24:18;7.30;;;3.77;;
2338;SDS011;1180;51.438;6.978;2023-07-13T08:26:47;9.13;;;3.07;;
2338;SDS011;1180;51.438;6.978;2023-07-13T08:29:13;5.37;;;2.90;;
2338;SDS011;1180;51.438;6.978;2023-07-13T08:31:39;5.30;;;3.13;;
2338;SDS011;1180;51.438;6.978;2023-07-13T08:34:04;5.40;;;2.90;;
2338;SDS011;1180;51.438;6.978;2023-07-13T08:36:30;4.60;;;3.90;;
2338;SDS011;1180;51.438;6.978;2023-07-13T08:38:56;5.50;;;3.00;;
2338;SDS011;1180;51.438;6.978;2023-07-13T08:41:21;5.53;;;3.20;;
2338;SDS011;1180;51.438;6.978;2023-07-13T08:43:49;4.00;;;2.37;;
2338;SDS011;1180;51.438;6.978;2023-07-13T08:46:19;9.10;;;3.43;;
2338;SDS011;1180;51.438;6.978;2023-07-13T08:48:48;7.13;;;3.97;;
2338;SDS011;1180;51.438;6.978;2023-07-13T08:51:24;5.23;;;3.50;;
2338;SDS011;1180;51.438;6.978;2023-07-13T08:54:00;10.33;;;3.40;;
2338;SDS011;1180;51.438;6.978;2023-07-13T08:56:29;4.70;;;2.83;;
2338;SDS011;1180;51.438;6.978;2023-07-13T08:58:57;6.50;;;2.67;;
2338;SDS011;1180;51.438;6.978;2023-07-13T09:01:31;6.03;;;2.70;;
2338;SDS011;1180;51.438;6.978;2023-07-13T09:04:19;4.33;;;2.83;;
2338;SDS011;1180;51.438;6.978;2023-07-13T09:12:10;6.30;;;3.27;;
2338;SDS011;1180;51.438;6.978;2023-07-13T09:17:19;3.83;;;2.63;;
2338;SDS011;1180;51.438;6.978;2023-07-13T09:22:49;5.03;;;2.77;;
2338;SDS011;1180;51.438;6.978;2023-07-13T09:27:55;3.53;;;2.50;;
2338;SDS011;1180;51.438;6.978;2023-07-13T09:30:37;5.93;;;3.03;;
2338;SDS011;1180;51.438;6.978;2023-07-13T09:33:16;4.97;;;2.57;;
2338;SDS011;1180;51.438;6.978;2023-07-13T09:35:42;4.60;;;3.17;;
2338;SDS011;1180;51.438;6.978;2023-07-13T09:38:12;5.43;;;3.53;;
2338;SDS011;1180;51.438;6.978;2023-07-13T09:43:18;8.50;;;3.90;;
2338;SDS011;1180;51.438;6.978;2023-07-13T09:45:46;15.50;;;2.90;;
2338;SDS011;1180;51.438;6.978;2023-07-13T09:48:15;4.10;;;2.40;;
2338;SDS011;1180;51.438;6.978;2023-07-13T09:50:42;6.37;;;2.77;;
2338;SDS011;1180;51.438;6.978;2023-07-13T09:53:16;4.53;;;3.27;;
2338;SDS011;1180;51.438;6.978;2023-07-13T09:55:44;5.83;;;2.47;;
2338;SDS011;1180;51.438;6.978;2023-07-13T09:58:15;4.07;;;3.07;;
2338;SDS011;1180;51.438;6.978;2023-07-13T10:00:56;8.10;;;3.27;;
2338;SDS011;1180;51.438;6.978;2023-07-13T10:03:29;6.60;;;3.47;;
2338;SDS011;1180;51.438;6.978;2023-07-13T10:06:15;5.43;;;2.77;;
2338;SDS011;1180;51.438;6.978;2023-07-13T10:08:44;6.77;;;2.70;;
2338;SDS011;1180;51.438;6.978;2023-07-13T10:13:44;4.40;;;3.20;;
2338;SDS011;1180;51.438;6.978;2023-07-13T10:16:14;6.07;;;3.00;;
2338;SDS011;1180;51.438;6.978;2023-07-13T10:18:48;6.87;;;2.57;;
2338;SDS011;1180;51.438;6.978;2023-07-13T10:21:19;9.37;;;2.57;;
2338;SDS011;1180;51.438;6.978;2023-07-13T10:23:48;4.07;;;2.30;;
2338;SDS011;1180;51.438;6.978;2023-07-13T10:26:18;7.13;;;3.10;;
2338;SDS011;1180;51.438;6.978;2023-07-13T10:28:53;6.43;;;2.70;;
2338;SDS011;1180;51.438;6.978;2023-07-13T10:31:22;5.73;;;2.90;;
2338;SDS011;1180;51.438;6.978;2023-07-13T10:33:49;5.47;;;3.03;;
2338;SDS011;1180;51.438;6.978;2023-07-13T10:38:56;5.70;;;2.93;;
2338;SDS011;1180;51.438;6.978;2023-07-13T10:41:25;4.43;;;2.83;;
2338;SDS011;1180;51.438;6.978;2023-07-13T10:43:55;3.70;;;2.57;;
2338;SDS011;1180;51.438;6.978;2023-07-13T10:46:22;3.70;;;2.93;;
2338;SDS011;1180;51.438;6.978;2023-07-13T10:48:55;5.27;;;2.57;;
2338;SDS011;1180;51.438;6.978;2023-07-13T10:51:30;6.00;;;2.97;;
2338;SDS011;1180;51.438;6.978;2023-07-13T10:56:38;3.03;;;2.67;;
2338;SDS011;1180;51.438;6.978;2023-07-13T11:01:55;5.13;;;2.50;;
2338;SDS011;1180;51.438;6.978;2023-07-13T11:04:23;5.17;;;2.70;;
2338;SDS011;1180;51.438;6.978;2023-07-13T11:06:53;4.23;;;2.77;;
2338;SDS011;1180;51.438;6.978;2023-07-13T11:09:36;8.53;;;2.67;;
2338;SDS011;1180;51.438;6.978;2023-07-13T11:12:10;3.47;;;2.10;;
2338;SDS011;1180;51.438;6.978;2023-07-13T11:22:52;4.40;;;2.13;;
2338;SDS011;1180;51.438;6.978;2023-07-13T11:25:33;4.80;;;2.37;;
2338;SDS011;1180;51.438;6.978;2023-07-13T11:28:11;4.67;;;2.30;;
2338;SDS011;1180;51.438;6.978;2023-07-13T11:31:15;6.13;;;2.60;;
2338;SDS011;1180;51.438;6.978;2023-07-13T11:36:14;4.80;;;2.53;;
2338;SDS011;1180;51.438;6.978;2023-07-13T11:38:42;5.20;;;1.97;;
2338;SDS011;1180;51.438;6.978;2023-07-13T11:41:15;4.10;;;2.20;;
2338;SDS011;1180;51.438;6.978;2023-07-13T11:43:44;6.40;;;2.40;;
2338;SDS011;1180;51.438;6.978;2023-07-13T11:46:20;4.63;;;2.67;;
2338;SDS011;1180;51.438;6.978;2023-07-13T11:48:49;7.70;;;2.20;;
2338;SDS011;1180;51.438;6.978;2023-07-13T11:53:53;6.77;;;1.93;;
2338;SDS011;1180;51.438;6.978;2023-07-13T11:56:22;4.53;;;2.37;;
2338;SDS011;1180;51.438;6.978;2023-07-13T11:58:50;9.03;;;2.90;;
2338;SDS011;1180;51.438;6.978;2023-07-13T12:01:22;3.80;;;2.30;;
2338;SDS011;1180;51.438;6.978;2023-07-13T12:03:57;2.70;;;2.40;;
2338;SDS011;1180;51.438;6.978;2023-07-13T12:06:35;5.40;;;2.23;;
2338;SDS011;1180;51.438;6.978;2023-07-13T12:09:14;3.83;;;2.13;;
2338;SDS011;1180;51.438;6.978;2023-07-13T12:11:44;2.90;;;2.10;;
2338;SDS011;1180;51.438;6.978;2023-07-13T12:14:14;4.27;;;2.10;;
2338;SDS011;1180;51.438;6.978;2023-07-13T12:16:40;3.43;;;1.77;;
2338;SDS011;1180;51.438;6.978;2023-07-13T12:19:15;2.90;;;1.90;;
2338;SDS011;1180;51.438;6.978;2023-07-13T12:21:45;3.23;;;2.47;;
2338;SDS011;1180;51.438;6.978;2023-07-13T12:24:16;2.57;;;2.37;;
2338;SDS011;1180;51.438;6.978;2023-07-13T12:26:44;2.83;;;1.60;;
2338;SDS011;1180;51.438;6.978;2023-07-13T12:29:12;4.37;;;2.00;;
2338;SDS011;1180;51.438;6.978;2023-07-13T12:31:43;4.50;;;2.20;;
2338;SDS011;1180;51.438;6.978;2023-07-13T12:34:14;3.43;;;2.07;;
2338;SDS011;1180;51.438;6.978;2023-07-13T12:36:49;2.43;;;1.63;;
2338;SDS011;1180;51.438;6.978;2023-07-13T12:39:16;4.63;;;2.30;;
2338;SDS011;1180;51.438;6.978;2023-07-13T12:41:51;3.70;;;2.30;;
2338;SDS011;1180;51.438;6.978;2023-07-13T12:44:24;3.90;;;2.07;;
2338;SDS011;1180;51.438;6.978;2023-07-13T12:46:59;4.03;;;1.83;;
2338;SDS011;1180;51.438;6.978;2023-07-13T12:49:32;3.10;;;2.10;;
2338;SDS011;1180;51.438;6.978;2023-07-13T12:52:02;2.80;;;1.50;;
2338;SDS011;1180;51.438;6.978;2023-07-13T12:54:39;2.67;;;2.20;;
2338;SDS011;1180;51.438;6.978;2023-07-13T12:57:05;2.00;;;1.80;;
2338;SDS011;1180;51.438;6.978;2023-07-13T12:59:41;3.47;;;1.60;;
2338;SDS011;1180;51.438;6.978;2023-07-13T13:02:17;4.40;;;2.07;;
2338;SDS011;1180;51.438;6.978;2023-07-13T13:04:52;3.33;;;1.70;;
2338;SDS011;1180;51.438;6.978;2023-07-13T13:07:20;4.57;;;2.23;;
2338;SDS011;1180;51.438;6.978;2023-07-13T13:09:46;3.67;;;1.63;;
2338;SDS011;1180;51.438;6.978;2023-07-13T13:12:12;1.93;;;1.50;;
2338;SDS011;1180;51.438;6.978;2023-07-13T13:14:38;5.87;;;1.90;;
2338;SDS011;1180;51.438;6.978;2023-07-13T13:17:07;3.20;;;1.57;;
2338;SDS011;1180;51.438;6.978;2023-07-13T13:19:46;4.73;;;1.80;;
2338;SDS011;1180;51.438;6.978;2023-07-13T13:22:12;3.37;;;2.27;;
2338;SDS011;1180;51.438;6.978;2023-07-13T13:24:39;4.10;;;2.10;;
2338;SDS011;1180;51.438;6.978;2023-07-13T13:27:04;3.73;;;2.53;;
2338;SDS011;1180;51.438;6.978;2023-07-13T13:29:31;4.30;;;2.57;;
2338;SDS011;1180;51.438;6.978;2023-07-13T13:31:59;4.50;;;2.67;;
2338;SDS011;1180;51.438;6.978;2023-07-13T13:34:24;4.40;;;2.03;;
2338;SDS011;1180;51.438;6.978;2023-07-13T13:36:50;4.60;;;1.90;;
2338;SDS011;1180;51.438;6.978;2023-07-13T13:39:22;2.33;;;1.87;;
2338;SDS011;1180;51.438;6.978;2023-07-13T13:41:50;4.03;;;2.27;;
2338;SDS011;1180;51.438;6.978;2023-07-13T13:44:18;4.80;;;1.97;;
2338;SDS011;1180;51.438;6.978;2023-07-13T13:46:45;7.90;;;2.27;;
2338;SDS011;1180;51.438;6.978;2023-07-13T13:49:13;8.27;;;2.30;;
2338;SDS011;1180;51.438;6.978;2023-07-13T13:51:41;3.73;;;2.73;;
2338;SDS011;1180;51.438;6.978;2023-07-13T13:54:10;5.10;;;2.53;;
2338;SDS011;1180;51.438;6.978;2023-07-13T13:56:44;5.20;;;2.77;;
2338;SDS011;1180;51.438;6.978;2023-07-13T13:59:10;5.10;;;2.50;;
2338;SDS011;1180;51.438;6.978;2023-07-13T14:01:37;8.63;;;3.33;;
2338;SDS011;1180;51.438;6.978;2023-07-13T14:04:04;6.10;;;2.80;;
2338;SDS011;1180;51.438;6.978;2023-07-13T14:06:31;3.40;;;2.57;;
2338;SDS011;1180;51.438;6.978;2023-07-13T14:08:59;4.00;;;2.60;;
2338;SDS011;1180;51.438;6.978;2023-07-13T14:11:26;5.67;;;2.57;;
2338;SDS011;1180;51.438;6.978;2023-07-13T14:13:56;3.20;;;1.87;;
2338;SDS011;1180;51.438;6.978;2023-07-13T14:16:26;2.90;;;2.60;;
2338;SDS011;1180;51.438;6.978;2023-07-13T14:18:54;6.93;;;3.47;;
2338;SDS011;1180;51.438;6.978;2023-07-13T14:21:23;4.17;;;2.67;;
2338;SDS011;1180;51.438;6.978;2023-07-13T14:23:50;5.53;;;3.07;;
2338;SDS011;1180;51.438;6.978;2023-07-13T14:26:19;5.40;;;3.53;;
2338;SDS011;1180;51.438;6.978;2023-07-13T14:28:53;5.90;;;2.63;;
2338;SDS011;1180;51.438;6.978;2023-07-13T14:31:21;4.37;;;2.30;;
2338;SDS011;1180;51.438;6.978;2023-07-13T14:33:48;9.80;;;3.33;;
2338;SDS011;1180;51.438;6.978;2023-07-13T14:36:21;6.30;;;3.10;;
2338;SDS011;1180;51.438;6.978;2023-07-13T14:38:50;3.60;;;3.30;;
2338;SDS011;1180;51.438;6.978;2023-07-13T14:41:16;4.23;;;2.40;;
2338;SDS011;1180;51.438;6.978;2023-07-13T14:43:42;4.10;;;3.03;;
2338;SDS011;1180;51.438;6.978;2023-07-13T14:46:12;4.00;;;2.90;;
2338;SDS011;1180;51.438;6.978;2023-07-13T14:48:46;6.87;;;3.60;;
2338;SDS011;1180;51.438;6.978;2023-07-13T14:51:11;4.00;;;2.90;;
2338;SDS011;1180;51.438;6.978;2023-07-13T14:53:37;5.43;;;3.53;;
2338;SDS011;1180;51.438;6.978;2023-07-13T14:56:09;3.40;;;2.97;;
2338;SDS011;1180;51.438;6.978;2023-07-13T14:58:36;4.33;;;3.27;;
2338;SDS011;1180;51.438;6.978;2023-07-13T15:01:02;6.37;;;3.47;;
2338;SDS011;1180;51.438;6.978;2023-07-13T15:03:28;3.70;;;3.00;;
2338;SDS011;1180;51.438;6.978;2023-07-13T15:05:54;4.30;;;3.07;;
2338;SDS011;1180;51.438;6.978;2023-07-13T15:08:20;5.57;;;3.23;;
2338;SDS011;1180;51.438;6.978;2023-07-13T15:10:46;6.70;;;3.50;;
2338;SDS011;1180;51.438;6.978;2023-07-13T15:13:17;3.63;;;2.73;;
2338;SDS011;1180;51.438;6.978;2023-07-13T15:15:47;4.23;;;2.70;;
2338;SDS011;1180;51.438;6.978;2023-07-13T15:18:15;3.10;;;2.40;;
2338;SDS011;1180;51.438;6.978;2023-07-13T15:20:44;3.90;;;2.63;;
2338;SDS011;1180;51.438;6.978;2023-07-13T15:23:12;2.80;;;2.60;;
2338;SDS011;1180;51.438;6.978;2023-07-13T15:25:40;3.70;;;2.90;;
2338;SDS011;1180;51.438;6.978;2023-07-13T15:28:09;5.00;;;2.70;;
2338;SDS011;1180;51.438;6.978;2023-07-13T15:35:38;3.83;;;2.93;;
2338;SDS011;1180;51.438;6.978;2023-07-13T15:38:25;6.40;;;3.40;;
2338;SDS011;1180;51.438;6.978;2023-07-13T15:40:53;3.00;;;2.10;;
2338;SDS011;1180;51.438;6.978;2023-07-13T15:43:21;5.50;;;2.90;;
2338;SDS011;1180;51.438;6.978;2023-07-13T15:45:47;4.43;;;2.33;;
2338;SDS011;1180;51.438;6.978;2023-07-13T15:48:18;9.80;;;3.40;;
2338;SDS011;1180;51.438;6.978;2023-07-13T15:50:55;4.77;;;2.83;;
2338;SDS011;1180;51.438;6.978;2023-07-13T15:53:31;4.70;;;2.53;;
2338;SDS011;1180;51.438;6.978;2023-07-13T15:55:59;6.00;;;2.50;;
2338;SDS011;1180;51.438;6.978;2023-07-13T15:58:26;6.50;;;2.80;;
2338;SDS011;1180;51.438;6.978;2023-07-13T16:00:53;2.90;;;1.87;;
2338;SDS011;1180;51.438;6.978;2023-07-13T16:03:19;4.53;;;3.23;;
2338;SDS011;1180;51.438;6.978;2023-07-13T16:05:46;3.00;;;2.17;;